X  Zatvori METAR podaci zračne luke     KSWO Stillwater Regional Airport
Temperatura
23°C Temperatura
5°C Točka rosišta
31% Vlaga



Vjetar
9 MPS
14 KM/S
4 M/S
8 Čvorovi



190°
J
Trenutna situacija

Vedro Vedro
Tlak zraka 1020.32 (hPa) - 30.13 (inHg)
Vidljivost 10 (milje) - 16.1 (km)
Zračna luka
Kôd zračne luke KSWO

Lokacija: Stillwater Regional Airport
Udaljenost: 4 (mi)

Metar:
KSWO 301653Z 19008G16KT 10SM CLR 23/05 A3013 RMK AO2 SLP193 T02330050

Vrijeme: 09-30-2022 11:53 am CDT